Walnut Ridge, Arkansas
Current Conditions -  °F | °C
As of 9:55 AM on Friday 28 Nov 2014 (Local Time) from KARG Reporting Station
Clear Clear  
Wind Chill: 32°   Ceiling: Unl
Heat Index: 41°   Visibility: 10mi
Dew Point: 30°   Wind: 18mph
Humidity: 65%   Direction: 190°S
Pressure: 30.34"   Gusts: 23mph
Location:  36.07°N, 90.96°W
Report Text: KARG 281555Z AUTO 19016G20KT 10SM CLR 05/M01 A3034 RMK AO1
Loading
Personal Weather Stations






























Interactive Weather Map New forecast layout! Learn more

10-Day Weather Forecast

Advertisements
Track Severe Weather on mobile